createdAt,value
2023-10-06T00:00:05.951Z,13.20
2023-10-06T00:10:09.233Z,13.30
2023-10-06T00:20:11.551Z,13.20
2023-10-06T00:30:14.145Z,13.10
2023-10-06T00:40:16.009Z,13.20
2023-10-06T00:50:18.020Z,13.00
2023-10-06T01:00:25.959Z,13.00
2023-10-06T01:10:27.801Z,13.00
2023-10-06T01:20:29.848Z,13.00
2023-10-06T01:30:31.719Z,12.90
2023-10-06T01:40:33.770Z,12.70
2023-10-06T01:50:35.683Z,12.60
2023-10-06T02:00:37.586Z,12.50
2023-10-06T02:10:39.588Z,12.20
2023-10-06T02:20:42.330Z,11.90
2023-10-06T02:30:44.556Z,11.70
2023-10-06T02:40:46.497Z,11.50
2023-10-06T02:50:48.562Z,11.40
2023-10-06T03:00:50.460Z,11.30
2023-10-06T03:10:52.368Z,11.10
2023-10-06T03:20:54.570Z,10.80
2023-10-06T03:30:56.555Z,10.60
2023-10-06T03:40:59.080Z,10.50
2023-10-06T03:51:01.143Z,10.80
2023-10-06T04:01:03.277Z,10.80
2023-10-06T04:11:05.131Z,10.80
2023-10-06T04:21:08.133Z,10.80
2023-10-06T04:31:10.177Z,10.80
2023-10-06T04:41:12.151Z,10.70
2023-10-06T04:51:14.136Z,10.40
2023-10-06T05:01:16.019Z,10.40
2023-10-06T05:11:21.507Z,10.10
2023-10-06T05:21:23.912Z,9.90
2023-10-06T05:31:26.032Z,9.90
2023-10-06T05:41:34.145Z,9.70
2023-10-06T05:51:36.238Z,10.20
2023-10-06T06:01:38.115Z,11.10
2023-10-06T06:11:41.742Z,12.20
2023-10-06T06:21:43.637Z,13.00
2023-10-06T06:31:45.583Z,13.70
2023-10-06T06:41:47.935Z,14.70
2023-10-06T06:51:55.253Z,14.80
2023-10-06T07:01:57.106Z,15.30
2023-10-06T07:11:58.957Z,15.70
2023-10-06T07:22:00.841Z,16.70
2023-10-06T07:32:03.402Z,16.30
2023-10-06T07:42:05.433Z,15.20
2023-10-06T07:52:10.095Z,15.30
2023-10-06T08:02:12.065Z,14.40
2023-10-06T08:12:14.119Z,14.70
2023-10-06T08:22:16.129Z,15.70
2023-10-06T08:32:18.302Z,16.60
2023-10-06T08:42:21.322Z,17.20
2023-10-06T08:52:23.252Z,16.70
2023-10-06T09:02:25.155Z,16.50
2023-10-06T09:12:27.146Z,16.60
2023-10-06T09:22:30.003Z,16.20
2023-10-06T09:32:31.933Z,16.50
2023-10-06T09:42:34.765Z,16.20
2023-10-06T09:52:40.582Z,16.90
2023-10-06T10:02:44.571Z,16.90
2023-10-06T10:13:44.221Z,17.10
2023-10-06T10:23:46.419Z,16.90
2023-10-06T10:33:48.304Z,17.70
2023-10-06T10:43:50.592Z,17.60
2023-10-06T10:53:53.647Z,18.20
2023-10-06T11:04:11.400Z,18.40
2023-10-06T11:14:14.116Z,18.10
2023-10-06T11:24:29.315Z,18.70
2023-10-06T11:34:31.428Z,18.30
2023-10-06T11:44:39.477Z,18.30
2023-10-06T11:54:41.405Z,18.80
2023-10-06T12:15:47.999Z,19.00
2023-10-06T12:25:49.893Z,19.00
2023-10-06T12:35:52.015Z,19.00
2023-10-06T12:45:53.996Z,19.00
2023-10-06T12:55:56.536Z,19.00
2023-10-06T13:06:07.151Z,18.80
2023-10-06T13:16:10.411Z,18.60
2023-10-06T13:26:27.006Z,18.90
2023-10-06T13:36:35.894Z,18.70
2023-10-06T13:46:38.075Z,18.60
2023-10-06T13:56:40.818Z,18.20
2023-10-06T14:06:44.153Z,18.30
2023-10-06T14:16:46.380Z,18.20
2023-10-06T14:26:48.572Z,18.00
2023-10-06T14:36:50.788Z,17.80
2023-10-06T14:46:53.281Z,17.80
2023-10-06T14:56:55.833Z,17.60
2023-10-06T15:06:57.927Z,17.50
2023-10-06T15:16:59.879Z,17.30
2023-10-06T15:27:01.780Z,17.00
2023-10-06T15:37:03.860Z,16.90
2023-10-06T15:47:05.707Z,16.70
2023-10-06T15:57:07.706Z,16.50
2023-10-06T16:07:15.843Z,16.20
2023-10-06T16:17:17.866Z,16.00
2023-10-06T16:27:19.758Z,15.80
2023-10-06T16:37:21.662Z,15.60
2023-10-06T16:47:24.209Z,15.40
2023-10-06T16:57:26.244Z,15.20
2023-10-06T17:07:28.236Z,15.10
2023-10-06T17:17:30.391Z,14.90
2023-10-06T17:27:32.361Z,14.70
2023-10-06T17:37:34.607Z,14.50
2023-10-06T17:47:37.869Z,14.40
2023-10-06T17:57:40.083Z,14.30
2023-10-06T18:07:41.991Z,14.30
2023-10-06T18:17:44.218Z,14.40
2023-10-06T18:27:46.210Z,14.30
2023-10-06T18:37:48.257Z,14.30
2023-10-06T18:47:50.311Z,14.30
2023-10-06T18:57:52.762Z,14.20
2023-10-06T19:07:54.914Z,14.10
2023-10-06T19:17:57.180Z,14.00
2023-10-06T19:27:59.123Z,14.00
2023-10-06T19:38:01.028Z,13.90
2023-10-06T19:48:03.387Z,13.90
2023-10-06T19:58:05.400Z,13.90
2023-10-06T20:08:08.439Z,13.80
2023-10-06T20:18:10.382Z,13.70
2023-10-06T20:28:12.302Z,13.70
2023-10-06T20:38:14.602Z,13.70
2023-10-06T20:48:19.617Z,13.60
2023-10-06T20:58:25.370Z,13.70
2023-10-06T21:08:28.160Z,13.70
2023-10-06T21:18:30.595Z,13.70
2023-10-06T21:28:32.834Z,13.70
2023-10-06T21:38:35.254Z,13.70
2023-10-06T21:48:37.141Z,13.70
2023-10-06T21:58:42.635Z,13.60
2023-10-06T22:08:44.920Z,13.50
2023-10-06T22:18:46.831Z,13.50
2023-10-06T22:28:54.490Z,13.50
2023-10-06T22:38:56.582Z,13.40
2023-10-06T22:48:58.505Z,13.40
2023-10-06T22:59:00.509Z,13.50
2023-10-06T23:09:02.688Z,13.40
2023-10-06T23:19:04.811Z,13.40
2023-10-06T23:29:06.624Z,13.40
2023-10-06T23:39:08.682Z,13.30
2023-10-06T23:49:10.989Z,13.30
2023-10-06T23:59:12.838Z,13.20
